Time;durP1;ratioP1;P1;durP2;ratioP2;P2;SDS_P1;SDS_P2;PMS_P1;PMS_P2;Temp;Humidity;BMP_temperature;BMP_pressure;BME280_temperature;BME280_humidity;BME280_pressure;Samples;Min_cycle;Max_cycle;Signal;HPM_P1;HPM_P2
2021/04/15 00:00:45;;;;;;;6.25;4.80;;;3.80;99.90;;;;;;4918949;29;20222;-73
2021/04/15 00:03:21;;;;;;;5.75;4.63;;;3.60;99.90;;;;;;4947314;28;20684;-73
2021/04/15 00:05:49;;;;;;;6.20;4.32;;;3.70;99.90;;;;;;4964893;28;20258;-73
2021/04/15 00:08:18;;;;;;;4.60;4.20;;;3.70;99.90;;;;;;4958479;28;20190;-72
2021/04/15 00:10:51;;;;;;;5.82;4.75;;;3.60;99.90;;;;;;4955160;28;20245;-73
2021/04/15 00:13:22;;;;;;;4.82;4.35;;;3.60;99.90;;;;;;4938970;28;20531;-72
2021/04/15 00:15:49;;;;;;;6.50;4.20;;;3.70;99.90;;;;;;4987037;28;20206;-72
2021/04/15 00:18:18;;;;;;;4.97;4.43;;;3.50;99.90;;;;;;4971319;28;20206;-72
2021/04/15 00:20:45;;;;;;;5.13;4.63;;;3.40;99.90;;;;;;4987373;28;20167;-72
2021/04/15 00:23:11;;;;;;;5.85;5.35;;;3.00;99.90;;;;;;4972153;28;20282;-72
2021/04/15 00:25:37;;;;;;;4.90;4.40;;;3.40;99.90;;;;;;4954255;28;20206;-73
2021/04/15 00:28:06;;;;;;;7.20;5.00;;;3.30;99.90;;;;;;4970870;28;20270;-72
2021/04/15 00:30:33;;;;;;;5.60;5.00;;;3.30;99.90;;;;;;4972525;28;20669;-72
2021/04/15 00:32:59;;;;;;;8.98;5.55;;;2.90;99.90;;;;;;4972623;28;20540;-72
2021/04/15 00:35:25;;;;;;;7.60;5.03;;;3.20;99.90;;;;;;4938758;28;20278;-72
2021/04/15 00:37:54;;;;;;;6.57;4.70;;;3.20;99.90;;;;;;4968310;28;20486;-72
2021/04/15 00:40:23;;;;;;;5.82;4.20;;;3.10;99.90;;;;;;4954712;28;20217;-72
2021/04/15 00:42:52;;;;;;;5.60;4.97;;;3.10;99.90;;;;;;4976548;28;20604;-72
2021/04/15 00:45:23;;;;;;;4.82;4.40;;;3.10;99.90;;;;;;4978829;28;20173;-72
2021/04/15 00:48:18;;;;;;;8.82;5.03;;;3.10;99.90;;;;;;4977473;28;20221;-72
2021/04/15 00:50:52;;;;;;;6.25;5.07;;;3.10;99.90;;;;;;4945516;28;20185;-73
2021/04/15 00:53:34;;;;;;;7.43;4.90;;;2.70;99.90;;;;;;4945318;28;20687;-72
2021/04/15 00:56:03;;;;;;;8.38;5.25;;;3.00;99.90;;;;;;4944926;28;20575;-72
2021/04/15 00:58:31;;;;;;;7.90;5.05;;;3.10;99.90;;;;;;4993145;28;20218;-72
2021/04/15 01:00:58;;;;;;;5.05;4.55;;;2.90;99.90;;;;;;4942601;28;20179;-72
2021/04/15 01:03:24;;;;;;;9.95;5.55;;;3.10;99.90;;;;;;4960771;28;20210;-72
2021/04/15 01:05:51;;;;;;;5.78;5.15;;;2.80;99.90;;;;;;4978479;28;20167;-72
2021/04/15 01:08:19;;;;;;;6.93;4.97;;;2.80;99.90;;;;;;4978380;28;20198;-72
2021/04/15 01:10:58;;;;;;;7.20;4.78;;;2.80;99.90;;;;;;4944976;28;20581;-72
2021/04/15 01:13:48;;;;;;;8.05;5.20;;;2.70;99.90;;;;;;4977683;28;20199;-73
2021/04/15 01:16:36;;;;;;;6.07;4.63;;;2.80;99.90;;;;;;4964521;28;20672;-73
2021/04/15 01:19:55;;;;;;;9.55;5.13;;;2.60;99.90;;;;;;4976286;28;20254;-72
2021/04/15 01:22:48;;;;;;;5.40;4.03;;;2.80;99.90;;;;;;4961094;28;20166;-72
2021/04/15 01:25:30;;;;;;;4.68;4.28;;;2.60;99.90;;;;;;4993570;28;20561;-73
2021/04/15 01:28:19;;;;;;;5.95;4.97;;;2.60;99.90;;;;;;4976992;28;20192;-73
2021/04/15 01:30:50;;;;;;;5.55;4.47;;;2.40;99.90;;;;;;4977156;28;20249;-73
2021/04/15 01:33:27;;;;;;;5.60;4.78;;;2.50;99.90;;;;;;4976922;28;20211;-72
2021/04/15 01:36:00;;;;;;;6.40;4.35;;;2.50;99.90;;;;;;4977954;28;20186;-73
2021/04/15 01:38:31;;;;;;;6.28;4.63;;;2.50;99.90;;;;;;4944890;28;20924;-72
2021/04/15 01:41:05;;;;;;;6.30;4.85;;;2.50;99.90;;;;;;4976311;28;20183;-72
2021/04/15 01:43:39;;;;;;;5.57;4.82;;;2.50;99.90;;;;;;4977738;28;20232;-72
2021/04/15 01:46:06;;;;;;;5.75;4.63;;;2.30;99.90;;;;;;4960500;28;20177;-72
2021/04/15 01:48:35;;;;;;;5.75;4.28;;;2.30;99.90;;;;;;4992579;28;20179;-73
2021/04/15 01:51:28;;;;;;;6.28;5.57;;;2.20;99.90;;;;;;4977825;28;20193;-73
2021/04/15 01:54:04;;;;;;;8.35;5.13;;;2.40;99.90;;;;;;4973332;28;20226;-72
2021/04/15 01:57:07;;;;;;;6.78;5.18;;;2.20;99.90;;;;;;4975158;28;20665;-73
2021/04/15 01:59:48;;;;;;;6.68;5.95;;;2.40;99.90;;;;;;4919355;29;20279;-73
2021/04/15 02:02:20;;;;;;;6.57;5.55;;;2.20;99.90;;;;;;4966399;28;20178;-72
2021/04/15 02:04:56;;;;;;;6.80;5.95;;;1.80;99.90;;;;;;4989546;28;20735;-72
2021/04/15 02:07:26;;;;;;;7.10;6.40;;;2.30;99.90;;;;;;4973518;28;20174;-72
2021/04/15 02:09:57;;;;;;;7.93;6.40;;;2.30;99.90;;;;;;4926126;28;20176;-72
2021/04/15 02:12:29;;;;;;;11.18;6.55;;;2.30;99.90;;;;;;4974650;28;20178;-72
2021/04/15 02:15:04;;;;;;;13.10;7.40;;;2.30;99.90;;;;;;4956647;28;20777;-72
2021/04/15 02:17:35;;;;;;;7.63;6.65;;;2.20;99.90;;;;;;4974434;28;20212;-73
2021/04/15 02:20:12;;;;;;;9.55;7.43;;;2.50;99.90;;;;;;4956702;28;20644;-73
2021/04/15 02:22:50;;;;;;;6.72;6.03;;;2.10;99.90;;;;;;4941649;28;20346;-72
2021/04/15 02:25:21;;;;;;;7.60;6.20;;;2.10;99.90;;;;;;4974104;28;20178;-73
2021/04/15 02:28:03;;;;;;;7.93;6.32;;;2.00;99.90;;;;;;4972976;28;20712;-72
2021/04/15 02:30:36;;;;;;;7.28;6.05;;;2.10;99.90;;;;;;4972642;28;20177;-73
2021/04/15 02:33:29;;;;;;;7.90;7.07;;;2.20;99.90;;;;;;4972585;28;20239;-73
2021/04/15 02:36:02;;;;;;;9.98;8.13;;;2.30;99.90;;;;;;4972356;28;20189;-72
2021/04/15 02:38:40;;;;;;;6.70;6.00;;;2.00;99.90;;;;;;4972581;28;20562;-73
2021/04/15 02:41:12;;;;;;;6.97;6.20;;;2.20;99.90;;;;;;4972675;28;20182;-72
2021/04/15 02:44:00;;;;;;;12.77;7.32;;;1.80;99.90;;;;;;4973549;28;20220;-72
2021/04/15 02:46:41;;;;;;;8.77;6.90;;;2.20;99.90;;;;;;4972673;28;20174;-73
2021/04/15 02:49:10;;;;;;;8.68;6.18;;;2.00;99.90;;;;;;4973398;28;20181;-73
2021/04/15 02:52:04;;;;;;;7.95;6.60;;;1.90;99.90;;;;;;4972692;28;20198;-72
2021/04/15 02:54:38;;;;;;;9.32;6.60;;;2.00;99.90;;;;;;4966510;28;20208;-72
2021/04/15 02:57:21;;;;;;;13.15;6.68;;;1.90;99.90;;;;;;4988427;28;20184;-72
2021/04/15 02:59:56;;;;;;;6.95;6.00;;;1.90;99.90;;;;;;4972900;28;20952;-72
2021/04/15 03:02:34;;;;;;;11.07;6.95;;;1.90;99.90;;;;;;4972064;28;20177;-73
2021/04/15 03:05:07;;;;;;;8.70;6.72;;;1.90;99.90;;;;;;4956644;28;20262;-72
2021/04/15 03:07:38;;;;;;;9.27;6.95;;;1.70;99.90;;;;;;4972745;28;20265;-73
2021/04/15 03:10:07;;;;;;;9.02;7.20;;;1.60;99.90;;;;;;4987856;28;20185;-72
2021/04/15 03:12:41;;;;;;;8.90;6.60;;;1.50;99.90;;;;;;4971843;28;20186;-72
2021/04/15 03:15:23;;;;;;;8.68;7.13;;;1.50;99.90;;;;;;4971976;28;20186;-72
2021/04/15 03:17:54;;;;;;;9.55;6.97;;;1.50;99.90;;;;;;4971624;28;20202;-73
2021/04/15 03:21:02;;;;;;;7.97;6.80;;;1.60;99.90;;;;;;4955752;28;20682;-72
2021/04/15 03:23:39;;;;;;;9.23;6.97;;;1.40;99.90;;;;;;4972685;28;20207;-73
2021/04/15 03:26:23;;;;;;;10.30;7.43;;;1.00;99.90;;;;;;4987916;28;20213;-72
2021/04/15 03:29:21;;;;;;;9.38;7.05;;;1.30;99.90;;;;;;4971757;28;20589;-73
2021/04/15 03:32:05;;;;;;;9.98;7.32;;;1.30;99.90;;;;;;4970607;28;20216;-72
2021/04/15 03:34:42;;;;;;;11.68;8.20;;;1.50;99.90;;;;;;4972058;28;20292;-72
2021/04/15 03:37:14;;;;;;;7.30;6.60;;;1.50;99.90;;;;;;4971104;28;20247;-73
2021/04/15 03:39:44;;;;;;;9.95;7.47;;;1.30;99.90;;;;;;4971446;28;20231;-72
2021/04/15 03:42:33;;;;;;;16.00;7.53;;;1.40;99.90;;;;;;4940213;28;20852;-72
2021/04/15 03:45:21;;;;;;;10.95;7.35;;;1.30;99.90;;;;;;4972740;28;20213;-72
2021/04/15 03:47:54;;;;;;;8.10;7.30;;;1.40;99.90;;;;;;4951996;28;20929;-72
2021/04/15 03:50:26;;;;;;;8.93;7.63;;;1.40;99.90;;;;;;4961522;28;20188;-72
2021/04/15 03:52:57;;;;;;;11.93;7.65;;;1.50;99.90;;;;;;4965773;28;20185;-73
2021/04/15 03:55:36;;;;;;;9.63;8.63;;;1.50;99.90;;;;;;4972832;28;20193;-72
2021/04/15 03:58:12;;;;;;;9.57;8.27;;;1.50;99.90;;;;;;4970009;28;21164;-73
2021/04/15 04:00:46;;;;;;;9.90;8.15;;;1.40;99.90;;;;;;4951706;28;20526;-72
2021/04/15 04:03:22;;;;;;;11.65;7.78;;;1.30;99.90;;;;;;4938551;28;20236;-72
2021/04/15 04:05:56;;;;;;;9.07;7.75;;;0.90;99.90;;;;;;4955552;28;20267;-73
2021/04/15 04:08:39;;;;;;;12.57;8.60;;;1.40;99.90;;;;;;4955055;28;20223;-73
2021/04/15 04:11:08;;;;;;;8.00;6.95;;;1.20;99.90;;;;;;4971445;28;20734;-73
2021/04/15 04:13:37;;;;;;;10.23;6.60;;;1.40;99.90;;;;;;4943377;28;20211;-73
2021/04/15 04:16:09;;;;;;;8.82;7.78;;;1.30;99.90;;;;;;4954462;28;20181;-73
2021/04/15 04:19:26;;;;;;;8.68;7.47;;;1.40;99.90;;;;;;4970302;28;20236;-73
2021/04/15 04:21:59;;;;;;;12.43;8.30;;;1.40;99.90;;;;;;4891136;29;20187;-72
2021/04/15 04:25:09;;;;;;;11.63;7.40;;;1.40;99.90;;;;;;4929772;29;20734;-72
2021/04/15 04:27:45;;;;;;;9.70;7.28;;;1.20;99.90;;;;;;4954578;28;20207;-72
2021/04/15 04:30:16;;;;;;;7.75;6.90;;;1.20;99.90;;;;;;4955654;28;20638;-74
2021/04/15 04:32:46;;;;;;;8.75;7.00;;;1.40;99.90;;;;;;4966951;28;20241;-74
2021/04/15 04:35:26;;;;;;;8.80;7.28;;;1.40;99.90;;;;;;4971473;28;20170;-74
2021/04/15 04:37:55;;;;;;;12.63;7.85;;;1.40;99.90;;;;;;4921640;28;20204;-73
2021/04/15 04:40:25;;;;;;;10.60;7.70;;;0.70;99.90;;;;;;4952860;28;20274;-73
2021/04/15 04:42:55;;;;;;;12.30;7.63;;;1.00;99.90;;;;;;4954531;28;20222;-73
2021/04/15 04:45:24;;;;;;;9.10;7.82;;;1.20;99.90;;;;;;4986644;28;20183;-73
2021/04/15 04:48:04;;;;;;;10.60;7.78;;;1.00;99.90;;;;;;4970491;28;20180;-73
2021/04/15 04:50:42;;;;;;;11.40;8.30;;;1.00;99.90;;;;;;4968911;28;20193;-73
2021/04/15 04:53:21;;;;;;;8.73;7.15;;;1.20;99.90;;;;;;4969888;28;20218;-73
2021/04/15 04:56:18;;;;;;;10.55;8.15;;;0.60;99.90;;;;;;4937891;28;20186;-73
2021/04/15 04:58:54;;;;;;;13.63;8.70;;;1.10;99.90;;;;;;4969556;28;20226;-72
2021/04/15 05:01:23;;;;;;;14.07;8.23;;;0.80;99.90;;;;;;4954501;28;20186;-72
2021/04/15 05:04:00;;;;;;;10.88;8.38;;;1.20;99.90;;;;;;4969803;28;20214;-73
2021/04/15 05:06:31;;;;;;;9.80;8.40;;;1.10;99.90;;;;;;4969500;28;20182;-73
2021/04/15 05:09:03;;;;;;;10.40;8.32;;;1.10;99.90;;;;;;4969924;28;20180;-73
2021/04/15 05:11:31;;;;;;;10.88;8.63;;;1.30;99.90;;;;;;4985729;28;20173;-73
2021/04/15 05:13:59;;;;;;;12.32;8.52;;;1.20;99.90;;;;;;4985866;28;20697;-73
2021/04/15 05:16:45;;;;;;;10.48;8.18;;;1.10;99.90;;;;;;4953850;28;20214;-73
2021/04/15 05:19:12;;;;;;;11.43;8.25;;;1.30;99.90;;;;;;4970220;28;20291;-73
2021/04/15 05:21:47;;;;;;;12.75;9.70;;;1.20;99.90;;;;;;4958632;28;20174;-73
2021/04/15 05:24:27;;;;;;;10.35;8.50;;;1.50;99.90;;;;;;4953923;28;20235;-73
2021/04/15 05:26:57;;;;;;;12.55;8.23;;;1.60;99.90;;;;;;4921859;28;20308;-72
2021/04/15 05:29:31;;;;;;;15.05;7.88;;;1.50;99.90;;;;;;4972564;28;20559;-73
2021/04/15 05:31:59;;;;;;;10.65;8.57;;;1.20;99.90;;;;;;4971518;28;20192;-73
2021/04/15 05:34:39;;;;;;;8.90;7.40;;;1.50;99.90;;;;;;4975023;28;20223;-73
2021/04/15 05:37:15;;;;;;;12.40;7.75;;;1.70;99.90;;;;;;4973198;28;20551;-72
2021/04/15 05:39:41;;;;;;;13.32;8.38;;;1.60;99.90;;;;;;4956415;28;20194;-73
2021/04/15 05:42:34;;;;;;;10.80;7.95;;;1.70;99.90;;;;;;4956165;28;20202;-72
2021/04/15 05:45:08;;;;;;;11.35;8.77;;;1.80;99.90;;;;;;4989976;23;20253;-79
2021/04/15 05:47:55;;;;;;;9.00;8.10;;;1.80;99.90;;;;;;4995436;28;20378;-79
2021/04/15 05:50:30;;;;;;;12.98;8.38;;;1.60;99.90;;;;;;4979715;28;20183;-80
2021/04/15 05:53:18;;;;;;;11.85;9.18;;;1.40;99.90;;;;;;4994659;28;20193;-79
2021/04/15 05:55:49;;;;;;;19.38;10.50;;;2.10;99.90;;;;;;4995856;28;20190;-79
2021/04/15 05:58:22;;;;;;;11.93;9.65;;;2.10;99.90;;;;;;4980316;28;20208;-79
2021/04/15 06:01:12;;;;;;;10.85;8.65;;;2.30;99.90;;;;;;4980208;28;20184;-79
2021/04/15 06:04:03;;;;;;;14.73;10.05;;;2.40;99.90;;;;;;4979972;28;20232;-79
2021/04/15 06:06:35;;;;;;;15.52;9.68;;;2.20;99.90;;;;;;4964148;28;20205;-79
2021/04/15 06:09:02;;;;;;;13.45;9.93;;;2.10;99.90;;;;;;4963766;28;20650;-79
2021/04/15 06:11:45;;;;;;;14.93;9.95;;;2.20;99.90;;;;;;4996799;28;20193;-79
2021/04/15 06:14:19;;;;;;;13.60;10.35;;;2.70;99.90;;;;;;4996484;28;20581;-79
2021/04/15 06:16:57;;;;;;;13.88;10.80;;;2.90;99.90;;;;;;4996691;28;20275;-79
2021/04/15 06:19:28;;;;;;;12.02;9.65;;;2.50;99.90;;;;;;4979800;28;20244;-79
2021/04/15 06:22:15;;;;;;;16.70;11.48;;;2.80;99.90;;;;;;4960536;28;20195;-78
2021/04/15 06:24:45;;;;;;;13.45;10.05;;;3.20;99.90;;;;;;4995975;28;20223;-79
2021/04/15 06:27:12;;;;;;;14.82;9.98;;;3.30;99.90;;;;;;4963756;28;20193;-78
2021/04/15 06:29:49;;;;;;;14.32;9.48;;;3.40;99.90;;;;;;4979569;28;20513;-79
2021/04/15 06:32:24;;;;;;;15.88;9.68;;;3.40;99.90;;;;;;4979471;28;20177;-79
2021/04/15 06:34:58;;;;;;;17.77;10.80;;;3.50;99.90;;;;;;4995863;28;20208;-79
2021/04/15 06:37:43;;;;;;;14.93;10.32;;;3.70;99.90;;;;;;4977919;28;20285;-79
2021/04/15 06:40:21;;;;;;;13.48;10.70;;;3.80;99.90;;;;;;4987986;28;20480;-80
2021/04/15 06:43:31;;;;;;;12.93;10.10;;;3.80;99.90;;;;;;4959942;28;20182;-84
2021/04/15 06:46:05;;;;;;;16.08;10.10;;;3.90;99.90;;;;;;4979246;28;20288;-83
2021/04/15 06:48:54;;;;;;;12.70;9.90;;;4.00;99.90;;;;;;4944005;28;20210;-84
2021/04/15 06:51:43;;;;;;;16.33;9.73;;;4.10;99.90;;;;;;4973824;28;20208;-83
2021/04/15 06:54:37;;;;;;;11.68;9.48;;;4.30;99.90;;;;;;4977646;28;20190;-82
2021/04/15 06:57:28;;;;;;;11.10;9.80;;;4.40;99.90;;;;;;4993614;28;20197;-79
2021/04/15 07:00:17;;;;;;;13.77;9.52;;;4.50;99.90;;;;;;4970857;28;20508;-79
2021/04/15 07:03:15;;;;;;;16.83;9.90;;;4.60;99.90;;;;;;4975641;28;20277;-79
2021/04/15 07:05:41;;;;;;;14.20;9.35;;;4.60;99.90;;;;;;4970910;28;20658;-80
2021/04/15 07:08:35;;;;;;;11.70;9.80;;;4.70;99.90;;;;;;4953304;28;20273;-79
2021/04/15 07:11:33;;;;;;;12.65;8.70;;;4.80;99.90;;;;;;4981152;28;20437;-80
2021/04/15 07:14:36;;;;;;;12.52;8.95;;;4.80;99.90;;;;;;4994005;28;20189;-80
2021/04/15 07:17:35;;;;;;;12.00;10.07;;;4.90;99.90;;;;;;4994066;28;20237;-81
2021/04/15 07:20:30;;;;;;;12.02;8.68;;;5.00;99.90;;;;;;4969076;28;20187;-81
2021/04/15 07:38:22;;;;;;;14.00;9.95;;;5.70;99.90;;;;;;4892480;23;20313;-82
2021/04/15 07:41:02;;;;;;;14.48;8.50;;;5.80;99.90;;;;;;4890930;29;20258;-85
2021/04/15 07:43:27;;;;;;;16.45;7.30;;;5.80;99.90;;;;;;4899862;29;20189;-81
2021/04/15 07:46:07;;;;;;;14.57;7.18;;;5.80;99.90;;;;;;4913394;29;20201;-81
2021/04/15 07:48:33;;;;;;;15.18;7.32;;;5.90;99.90;;;;;;4881827;29;20596;-85
2021/04/15 07:51:02;;;;;;;11.10;7.82;;;6.00;99.90;;;;;;4895760;29;20622;-85
2021/04/15 07:53:53;;;;;;;15.27;6.00;;;6.10;99.90;;;;;;4882801;29;20220;-84
2021/04/15 07:56:57;;;;;;;8.85;6.90;;;6.20;99.90;;;;;;4897494;29;20198;-83
2021/04/15 07:59:43;;;;;;;10.50;5.70;;;6.30;99.90;;;;;;4904856;29;20645;-84
2021/04/15 08:02:43;;;;;;;8.23;5.88;;;6.40;99.90;;;;;;4898432;29;20312;-84
2021/04/15 08:06:02;;;;;;;9.50;5.97;;;6.50;99.90;;;;;;4897794;29;20194;-84
2021/04/15 08:08:46;;;;;;;11.38;6.00;;;6.70;99.90;;;;;;4881304;29;20741;-83
2021/04/15 08:11:24;;;;;;;10.30;5.78;;;6.90;99.90;;;;;;4895225;29;20272;-84
2021/04/15 08:14:06;;;;;;;6.28;5.60;;;7.00;99.90;;;;;;4909411;29;20651;-84
2021/04/15 08:16:57;;;;;;;11.60;6.00;;;7.30;99.90;;;;;;4898295;29;20221;-83
2021/04/15 08:19:39;;;;;;;10.95;6.75;;;7.40;99.90;;;;;;4881469;29;20743;-83
2021/04/15 08:22:52;;;;;;;7.00;5.72;;;7.40;99.90;;;;;;4906175;29;20190;-83
2021/04/15 08:25:18;;;;;;;6.72;5.85;;;7.40;99.90;;;;;;4881504;29;20215;-84
2021/04/15 08:28:09;;;;;;;8.30;6.00;;;7.50;99.90;;;;;;4900466;29;20204;-84
2021/04/15 08:31:01;;;;;;;11.88;6.63;;;7.70;99.90;;;;;;4907167;29;20826;-84
2021/04/15 08:33:41;;;;;;;11.57;6.20;;;7.90;99.90;;;;;;4877436;29;20205;-83
2021/04/15 08:36:21;;;;;;;9.05;7.03;;;8.00;99.90;;;;;;4905972;29;20240;-84
2021/04/15 08:39:00;;;;;;;7.93;6.00;;;8.00;99.90;;;;;;4904499;29;20222;-84
2021/04/15 08:41:52;;;;;;;13.18;7.15;;;7.90;99.90;;;;;;4901385;29;20276;-83
2021/04/15 08:44:32;;;;;;;9.10;6.35;;;7.90;99.90;;;;;;4853122;29;20220;-83
2021/04/15 08:47:14;;;;;;;7.03;5.55;;;8.10;99.90;;;;;;4897722;29;20236;-84
2021/04/15 08:50:17;;;;;;;7.60;6.10;;;8.40;99.90;;;;;;4897781;29;20542;-83
2021/04/15 08:52:46;;;;;;;7.40;5.20;;;8.40;99.50;;;;;;4895661;29;20462;-84
2021/04/15 08:55:18;;;;;;;8.13;6.10;;;8.40;99.10;;;;;;4913043;29;20441;-84
2021/04/15 08:58:18;;;;;;;6.30;5.40;;;8.40;98.80;;;;;;4902800;29;20500;-84
2021/04/15 09:01:39;;;;;;;8.75;6.03;;;8.50;98.60;;;;;;4893015;29;20433;-84
2021/04/15 09:04:13;;;;;;;6.87;6.37;;;8.40;98.50;;;;;;4885588;29;20203;-83
2021/04/15 09:06:53;;;;;;;8.83;7.90;;;8.40;98.00;;;;;;4909298;29;20435;-84
2021/04/15 09:09:39;;;;;;;6.87;6.27;;;8.50;98.30;;;;;;4909012;29;20440;-84
2021/04/15 09:12:30;;;;;;;7.33;6.13;;;8.70;97.30;;;;;;4892011;29;20761;-84
2021/04/15 09:15:25;;;;;;;7.10;6.43;;;9.00;98.00;;;;;;4919188;29;20538;-84
2021/04/15 09:18:21;;;;;;;7.97;6.80;;;9.40;98.20;;;;;;4918611;29;20510;-84
2021/04/15 09:20:55;;;;;;;7.70;7.00;;;9.60;96.90;;;;;;4887079;29;20443;-84
2021/04/15 09:23:37;;;;;;;6.73;5.90;;;9.60;94.50;;;;;;4902039;29;20503;-84
2021/04/15 09:26:08;;;;;;;7.47;6.87;;;9.50;94.70;;;;;;4901410;29;20523;-83
2021/04/15 09:29:14;;;;;;;10.73;7.67;;;9.20;95.20;;;;;;4930022;29;20450;-83
2021/04/15 09:31:57;;;;;;;9.97;7.70;;;8.90;95.30;;;;;;4909355;29;20434;-83
2021/04/15 09:34:48;;;;;;;9.00;7.57;;;8.50;95.90;;;;;;4885041;29;20439;-84
2021/04/15 09:37:52;;;;;;;7.70;6.95;;;8.30;96.90;;;;;;4904756;29;20476;-83
2021/04/15 09:40:43;;;;;;;9.70;7.45;;;8.20;98.10;;;;;;4908090;29;20206;-83
2021/04/15 09:43:43;;;;;;;7.60;6.30;;;8.20;97.40;;;;;;4900650;29;20200;-83
2021/04/15 09:46:52;;;;;;;7.87;7.03;;;8.20;96.30;;;;;;4872672;29;20205;-84
2021/04/15 09:49:20;;;;;;;7.27;6.67;;;8.30;97.10;;;;;;4853127;29;20443;-84
2021/04/15 09:52:06;;;;;;;8.60;6.80;;;8.70;96.10;;;;;;4903311;29;20449;-84
2021/04/15 09:54:47;;;;;;;7.40;6.70;;;8.80;94.90;;;;;;4893513;29;20430;-83
2021/04/15 09:57:33;;;;;;;7.07;6.47;;;9.00;94.60;;;;;;4898139;29;20522;-84
2021/04/15 10:00:20;;;;;;;6.80;6.23;;;9.10;93.40;;;;;;4907918;29;20435;-83
2021/04/15 10:03:06;;;;;;;9.73;5.47;;;9.10;93.00;;;;;;4892513;29;20452;-84
2021/04/15 10:05:52;;;;;;;6.80;6.20;;;9.00;92.50;;;;;;4908349;29;20435;-83
2021/04/15 10:12:03;;;;;;;8.10;7.40;;;9.40;93.10;;;;;;4862767;29;20559;-84
2021/04/15 10:15:21;;;;;;;11.53;7.40;;;9.50;91.60;;;;;;4867284;29;20445;-84
2021/04/15 10:18:16;;;;;;;7.33;6.63;;;9.60;92.80;;;;;;4865861;29;20567;-84
2021/04/15 10:20:59;;;;;;;8.93;8.03;;;9.50;92.60;;;;;;4916674;29;20795;-84
2021/04/15 10:23:51;;;;;;;7.97;7.33;;;10.00;91.90;;;;;;4883337;29;20452;-84
2021/04/15 10:26:18;;;;;;;7.50;7.00;;;10.70;91.80;;;;;;4877505;29;20512;-84
2021/04/15 10:29:06;;;;;;;7.00;5.53;;;10.90;90.20;;;;;;4871944;29;20470;-84
2021/04/15 10:31:58;;;;;;;7.30;6.70;;;11.00;86.60;;;;;;4862598;29;20442;-84
2021/04/15 10:34:53;;;;;;;7.13;5.93;;;11.40;85.10;;;;;;4882499;29;20451;-83
2021/04/15 10:37:29;;;;;;;7.80;7.10;;;11.30;86.30;;;;;;4874187;29;20465;-84
2021/04/15 10:40:17;;;;;;;7.47;6.73;;;11.20;86.70;;;;;;4875840;29;20437;-83
2021/04/15 10:43:24;;;;;;;6.47;5.87;;;10.90;86.60;;;;;;4878439;29;20453;-83
2021/04/15 10:46:04;;;;;;;8.60;7.80;;;10.70;86.60;;;;;;4844989;29;20449;-83
2021/04/15 10:48:49;;;;;;;8.47;7.77;;;10.60;86.60;;;;;;4876568;29;20759;-83
2021/04/15 10:51:36;;;;;;;10.87;7.10;;;10.60;87.70;;;;;;4875432;29;20532;-84
2021/04/15 10:54:41;;;;;;;6.53;5.97;;;10.60;86.70;;;;;;4866140;29;20468;-83
2021/04/15 10:57:27;;;;;;;7.10;6.60;;;11.00;86.90;;;;;;4869474;29;20465;-84
2021/04/15 10:59:54;;;;;;;6.70;6.20;;;11.60;83.20;;;;;;4882275;29;20437;-90
2021/04/15 11:02:46;;;;;;;7.00;6.40;;;12.20;83.60;;;;;;4889053;29;20442;-90
2021/04/15 11:05:39;;;;;;;7.30;6.77;;;12.80;82.80;;;;;;4859821;29;20803;-92
2021/04/15 11:08:17;;;;;;;5.03;4.73;;;13.00;75.10;;;;;;4858324;29;20482;-91
2021/04/15 11:10:46;;;;;;;5.73;4.63;;;12.80;74.90;;;;;;4870631;29;20441;-91
2021/04/15 11:13:24;;;;;;;6.53;6.03;;;13.00;74.00;;;;;;4893301;29;20516;-92
2021/04/15 11:16:01;;;;;;;5.20;4.70;;;13.30;74.50;;;;;;4887660;29;20446;-89
2021/04/15 11:18:29;;;;;;;7.33;6.37;;;13.60;69.20;;;;;;4892031;29;20490;-91
2021/04/15 11:21:12;;;;;;;6.90;6.00;;;13.70;68.30;;;;;;4889439;29;20486;-86
2021/04/15 11:23:43;;;;;;;6.17;5.57;;;13.50;66.10;;;;;;4886288;29;20446;-89
2021/04/15 11:26:19;;;;;;;6.73;6.20;;;13.00;69.60;;;;;;4880839;29;20450;-92
2021/04/15 11:28:47;;;;;;;7.23;6.63;;;12.50;69.00;;;;;;4889466;29;20442;-89
2021/04/15 11:31:12;;;;;;;7.00;6.50;;;12.00;69.40;;;;;;4904210;29;20446;-86
2021/04/15 11:33:48;;;;;;;5.80;5.40;;;11.70;70.90;;;;;;4899821;29;20502;-86
2021/04/15 11:36:24;;;;;;;5.57;5.27;;;11.20;70.30;;;;;;4919004;29;20791;-83
2021/04/15 11:39:05;;;;;;;7.03;6.53;;;11.10;69.80;;;;;;4904001;29;20476;-86
2021/04/15 11:42:03;;;;;;;8.27;7.53;;;11.70;73.10;;;;;;4907327;29;20881;-89
2021/04/15 11:44:51;;;;;;;5.90;5.50;;;12.30;69.70;;;;;;4904271;29;20791;-92
2021/04/15 11:47:25;;;;;;;6.87;6.17;;;12.60;68.90;;;;;;4900730;29;20441;-89
2021/04/15 11:50:06;;;;;;;5.60;5.30;;;13.10;67.90;;;;;;4913031;29;20913;-88
2021/04/15 11:52:38;;;;;;;6.00;5.50;;;13.00;66.20;;;;;;4905051;29;20442;-90
2021/04/15 11:55:24;;;;;;;9.00;8.27;;;12.70;64.80;;;;;;4915124;29;20426;-87
2021/04/15 11:58:05;;;;;;;94.90;42.93;;;12.10;64.90;;;;;;4909081;29;20486;-87
2021/04/15 12:00:42;;;;;;;6.80;6.20;;;11.60;63.20;;;;;;4881890;29;20441;-89
2021/04/15 12:03:21;;;;;;;6.57;5.90;;;11.40;60.80;;;;;;4893043;29;20445;-87
2021/04/15 12:05:49;;;;;;;5.27;4.87;;;11.30;64.60;;;;;;4888625;29;20491;-85
2021/04/15 12:08:20;;;;;;;4.80;4.40;;;11.30;65.40;;;;;;4899913;29;20469;-85
2021/04/15 12:10:50;;;;;;;6.40;5.80;;;11.40;67.00;;;;;;4907955;29;20441;-85
2021/04/15 12:13:40;;;;;;;5.77;5.47;;;11.80;67.10;;;;;;4911560;29;20444;-84
2021/04/15 12:16:18;;;;;;;6.87;6.17;;;12.50;65.80;;;;;;4898464;29;20836;-83
2021/04/15 12:18:58;;;;;;;6.57;5.97;;;12.90;62.20;;;;;;4904456;29;20875;-84
2021/04/15 12:21:38;;;;;;;6.33;5.93;;;12.50;60.70;;;;;;4912202;29;20839;-82
2021/04/15 12:24:27;;;;;;;5.23;4.83;;;12.20;61.60;;;;;;4900462;29;20449;-87
2021/04/15 12:27:01;;;;;;;6.13;5.63;;;11.90;60.90;;;;;;4888320;29;20886;-90
2021/04/15 12:29:43;;;;;;;5.97;5.43;;;11.60;62.40;;;;;;4906236;29;21111;-93
2021/04/15 12:32:24;;;;;;;8.20;5.73;;;11.50;63.60;;;;;;4905154;29;20532;-85
2021/04/15 12:35:11;;;;;;;7.77;5.23;;;11.40;65.20;;;;;;4904022;29;20446;-90
2021/04/15 12:37:49;;;;;;;6.50;5.90;;;11.60;66.00;;;;;;4890860;29;21310;-84
2021/04/15 12:40:29;;;;;;;6.33;5.73;;;11.60;64.30;;;;;;4922186;29;20453;-84
2021/04/15 12:43:05;;;;;;;5.43;4.93;;;11.80;65.00;;;;;;4898826;29;20461;-88
2021/04/15 12:46:07;;;;;;;5.93;5.60;;;11.60;62.80;;;;;;4907513;29;20592;-93
2021/04/15 12:48:43;;;;;;;6.07;5.57;;;11.60;65.80;;;;;;4859645;29;20441;-93
2021/04/15 12:51:11;;;;;;;5.80;5.40;;;11.70;66.50;;;;;;4920379;29;20501;-85
2021/04/15 12:53:41;;;;;;;6.57;6.03;;;11.80;66.00;;;;;;4892951;29;20433;-87
2021/04/15 12:56:09;;;;;;;7.20;6.70;;;11.70;65.40;;;;;;4906698;29;20529;-84
2021/04/15 12:58:37;;;;;;;6.33;5.83;;;11.70;66.30;;;;;;4914420;29;20484;-88
2021/04/15 13:01:05;;;;;;;7.03;6.63;;;11.90;65.70;;;;;;4911933;29;20448;-86
2021/04/15 13:03:38;;;;;;;5.87;5.47;;;12.20;64.20;;;;;;4885082;29;20436;-85
2021/04/15 13:06:07;;;;;;;6.40;5.90;;;12.50;61.90;;;;;;4897764;29;20436;-88
2021/04/15 13:08:36;;;;;;;6.03;5.43;;;12.70;62.20;;;;;;4907327;29;20549;-92
2021/04/15 13:11:22;;;;;;;6.37;5.97;;;13.10;62.20;;;;;;4883108;29;20488;-92
2021/04/15 13:14:00;;;;;;;6.33;5.87;;;13.70;59.40;;;;;;4891204;29;20496;-84
2021/04/15 13:16:35;;;;;;;6.10;5.60;;;14.20;56.20;;;;;;4904101;29;20439;-82
2021/04/15 13:19:21;;;;;;;6.30;5.90;;;14.30;54.60;;;;;;4900732;29;20474;-82
2021/04/15 13:22:16;;;;;;;6.80;6.30;;;14.00;56.50;;;;;;4890249;29;20767;-82
2021/04/15 13:24:45;;;;;;;7.73;7.20;;;13.80;56.50;;;;;;4914653;29;20449;-83
2021/04/15 13:27:36;;;;;;;7.80;7.20;;;13.60;56.30;;;;;;4911356;29;20446;-83
2021/04/15 13:30:20;;;;;;;7.53;6.77;;;13.60;58.20;;;;;;4903833;29;21446;-85
2021/04/15 13:33:12;;;;;;;6.47;5.93;;;14.00;57.80;;;;;;4902953;29;20445;-85
2021/04/15 13:35:47;;;;;;;7.10;6.60;;;14.40;56.90;;;;;;4929862;29;20427;-87
2021/04/15 13:41:26;;;;;;;6.13;5.63;;;13.80;56.30;;;;;;4896764;29;20439;-88
2021/04/15 13:43:58;;;;;;;6.33;5.73;;;13.40;57.90;;;;;;4906112;29;20497;-87
2021/04/15 13:46:25;;;;;;;7.57;7.07;;;13.40;58.00;;;;;;4908823;29;20457;-84
2021/04/15 13:49:00;;;;;;;8.57;7.87;;;13.40;57.20;;;;;;4913573;29;20469;-89
2021/04/15 13:51:34;;;;;;;8.23;6.63;;;13.50;58.80;;;;;;4900980;29;20433;-86
2021/04/15 13:54:08;;;;;;;8.77;8.07;;;13.60;58.20;;;;;;4910468;29;20517;-85
2021/04/15 13:56:42;;;;;;;6.47;6.17;;;13.50;54.60;;;;;;4910964;29;20461;-86
2021/04/15 13:59:35;;;;;;;6.93;6.27;;;13.30;53.50;;;;;;4907503;29;20505;-81
2021/04/15 14:02:18;;;;;;;7.53;6.93;;;13.20;54.90;;;;;;4906489;29;20512;-85
2021/04/15 14:04:58;;;;;;;9.20;7.50;;;12.90;55.30;;;;;;4905852;29;20473;-86
2021/04/15 14:07:39;;;;;;;8.70;7.97;;;12.70;56.20;;;;;;4896816;29;20430;-87
2021/04/15 14:10:19;;;;;;;7.07;6.57;;;12.90;57.00;;;;;;4894952;29;20439;-87
2021/04/15 14:12:55;;;;;;;7.30;6.77;;;13.40;56.30;;;;;;4916696;29;20432;-87
2021/04/15 14:15:32;;;;;;;7.90;7.40;;;14.00;56.10;;;;;;4911659;29;20492;-87
2021/04/15 14:18:25;;;;;;;8.77;8.17;;;14.50;55.30;;;;;;4902571;29;20559;-86